<?xml version="1.0" encoding="UTF-8" standalone="no" ?>
<gpx xmlns="http://www.topografix.com/GPX/1/1" xmlns:xsi="http://www.w3.org/2001/XMLSchema-instance" xsi:schemaLocation="http://www.topografix.com/GPX/1/1 http://www.topografix.com/GPX/1/1/gpx.xsd" version="1.1" creator="VisuGPX - https://www.visugpx.com">
  <metadata>
    <name>Balade du 15/02/2017</name>
    <desc><![CDATA[ 2h30 de balade par temps doux et les premières primevères ...]]></desc>
  </metadata>
  <trk>
    <name><![CDATA[15 févr. 2017]]></name>
    <cmt><![CDATA[11:31:51]]></cmt>
    <desc><![CDATA[comment ...]]></desc>
    <trkseg>
      <trkpt lat="45.77221" lon="5.34858">
        <ele>327</ele>
        <time>2017-02-15T10:31:51Z</time>
      </trkpt>
      <trkpt lat="45.77221" lon="5.34858">
        <ele>327</ele>
        <time>2017-02-15T10:31:52Z</time>
      </trkpt>
      <trkpt lat="45.77215" lon="5.34858">
        <ele>328</ele>
        <time>2017-02-15T10:32:17Z</time>
      </trkpt>
      <trkpt lat="45.77209" lon="5.34859">
        <ele>328</ele>
        <time>2017-02-15T10:32:20Z</time>
      </trkpt>
      <trkpt lat="45.77196" lon="5.34863">
        <ele>328</ele>
        <time>2017-02-15T10:32:28Z</time>
      </trkpt>
      <trkpt lat="45.77168" lon="5.34891">
        <ele>329</ele>
        <time>2017-02-15T10:32:50Z</time>
      </trkpt>
      <trkpt lat="45.7716" lon="5.34916">
        <ele>329</ele>
        <time>2017-02-15T10:33:01Z</time>
      </trkpt>
      <trkpt lat="45.77148" lon="5.34931">
        <ele>329</ele>
        <time>2017-02-15T10:33:11Z</time>
      </trkpt>
      <trkpt lat="45.77133" lon="5.34951">
        <ele>329</ele>
        <time>2017-02-15T10:33:23Z</time>
      </trkpt>
      <trkpt lat="45.77133" lon="5.34959">
        <ele>329</ele>
        <time>2017-02-15T10:33:27Z</time>
      </trkpt>
      <trkpt lat="45.77167" lon="5.35003">
        <ele>329</ele>
        <time>2017-02-15T10:33:53Z</time>
      </trkpt>
      <trkpt lat="45.77183" lon="5.35035">
        <ele>328</ele>
        <time>2017-02-15T10:34:12Z</time>
      </trkpt>
      <trkpt lat="45.77191" lon="5.35038">
        <ele>328</ele>
        <time>2017-02-15T10:34:18Z</time>
      </trkpt>
      <trkpt lat="45.77234" lon="5.35019">
        <ele>328</ele>
        <time>2017-02-15T10:34:48Z</time>
      </trkpt>
      <trkpt lat="45.77261" lon="5.35027">
        <ele>330</ele>
        <time>2017-02-15T10:35:20Z</time>
      </trkpt>
      <trkpt lat="45.77275" lon="5.3504">
        <ele>331</ele>
        <time>2017-02-15T10:35:32Z</time>
      </trkpt>
      <trkpt lat="45.77283" lon="5.35058">
        <ele>334</ele>
        <time>2017-02-15T10:35:43Z</time>
      </trkpt>
      <trkpt lat="45.77304" lon="5.35102">
        <ele>340</ele>
        <time>2017-02-15T10:36:09Z</time>
      </trkpt>
      <trkpt lat="45.77304" lon="5.3511">
        <ele>341</ele>
        <time>2017-02-15T10:36:14Z</time>
      </trkpt>
      <trkpt lat="45.77277" lon="5.35161">
        <ele>344</ele>
        <time>2017-02-15T10:36:46Z</time>
      </trkpt>
      <trkpt lat="45.77271" lon="5.35184">
        <ele>345</ele>
        <time>2017-02-15T10:36:58Z</time>
      </trkpt>
      <trkpt lat="45.77277" lon="5.35199">
        <ele>345</ele>
        <time>2017-02-15T10:37:06Z</time>
      </trkpt>
      <trkpt lat="45.77304" lon="5.35244">
        <ele>343</ele>
        <time>2017-02-15T10:37:31Z</time>
      </trkpt>
      <trkpt lat="45.77323" lon="5.35304">
        <ele>341</ele>
        <time>2017-02-15T10:38:00Z</time>
      </trkpt>
      <trkpt lat="45.77331" lon="5.35347">
        <ele>339</ele>
        <time>2017-02-15T10:38:19Z</time>
      </trkpt>
      <trkpt lat="45.77339" lon="5.35356">
        <ele>339</ele>
        <time>2017-02-15T10:38:25Z</time>
      </trkpt>
      <trkpt lat="45.77358" lon="5.35369">
        <ele>337</ele>
        <time>2017-02-15T10:38:37Z</time>
      </trkpt>
      <trkpt lat="45.77406" lon="5.35358">
        <ele>334</ele>
        <time>2017-02-15T10:39:07Z</time>
      </trkpt>
      <trkpt lat="45.77451" lon="5.35372">
        <ele>332</ele>
        <time>2017-02-15T10:39:36Z</time>
      </trkpt>
      <trkpt lat="45.77466" lon="5.35389">
        <ele>332</ele>
        <time>2017-02-15T10:39:49Z</time>
      </trkpt>
      <trkpt lat="45.77484" lon="5.35419">
        <ele>331</ele>
        <time>2017-02-15T10:40:07Z</time>
      </trkpt>
      <trkpt lat="45.77516" lon="5.35485">
        <ele>327</ele>
        <time>2017-02-15T10:40:39Z</time>
      </trkpt>
      <trkpt lat="45.77529" lon="5.35509">
        <ele>325</ele>
        <time>2017-02-15T10:40:52Z</time>
      </trkpt>
      <trkpt lat="45.77544" lon="5.35527">
        <ele>324</ele>
        <time>2017-02-15T10:41:12Z</time>
      </trkpt>
      <trkpt lat="45.7755" lon="5.35529">
        <ele>323</ele>
        <time>2017-02-15T10:41:16Z</time>
      </trkpt>
      <trkpt lat="45.77601" lon="5.35533">
        <ele>322</ele>
        <time>2017-02-15T10:41:49Z</time>
      </trkpt>
      <trkpt lat="45.77624" lon="5.35531">
        <ele>322</ele>
        <time>2017-02-15T10:42:02Z</time>
      </trkpt>
      <trkpt lat="45.77645" lon="5.35517">
        <ele>321</ele>
        <time>2017-02-15T10:42:13Z</time>
      </trkpt>
      <trkpt lat="45.7766" lon="5.35489">
        <ele>320</ele>
        <time>2017-02-15T10:42:26Z</time>
      </trkpt>
      <trkpt lat="45.77668" lon="5.35478">
        <ele>319</ele>
        <time>2017-02-15T10:42:32Z</time>
      </trkpt>
      <trkpt lat="45.77699" lon="5.35453">
        <ele>317</ele>
        <time>2017-02-15T10:42:53Z</time>
      </trkpt>
      <trkpt lat="45.77732" lon="5.35437">
        <ele>316</ele>
        <time>2017-02-15T10:43:14Z</time>
      </trkpt>
      <trkpt lat="45.77778" lon="5.35418">
        <ele>316</ele>
        <time>2017-02-15T10:43:44Z</time>
      </trkpt>
      <trkpt lat="45.77829" lon="5.35402">
        <ele>317</ele>
        <time>2017-02-15T10:44:17Z</time>
      </trkpt>
      <trkpt lat="45.77881" lon="5.35388">
        <ele>321</ele>
        <time>2017-02-15T10:44:49Z</time>
      </trkpt>
      <trkpt lat="45.77932" lon="5.35387">
        <ele>322</ele>
        <time>2017-02-15T10:45:21Z</time>
      </trkpt>
      <trkpt lat="45.77937" lon="5.35386">
        <ele>322</ele>
        <time>2017-02-15T10:45:25Z</time>
      </trkpt>
      <trkpt lat="45.77944" lon="5.35378">
        <ele>321</ele>
        <time>2017-02-15T10:45:32Z</time>
      </trkpt>
      <trkpt lat="45.77958" lon="5.35369">
        <ele>319</ele>
        <time>2017-02-15T10:45:40Z</time>
      </trkpt>
      <trkpt lat="45.77969" lon="5.35359">
        <ele>316</ele>
        <time>2017-02-15T10:45:47Z</time>
      </trkpt>
      <trkpt lat="45.77974" lon="5.35364">
        <ele>315</ele>
        <time>2017-02-15T10:45:52Z</time>
      </trkpt>
      <trkpt lat="45.77976" lon="5.35375">
        <ele>313</ele>
        <time>2017-02-15T10:45:58Z</time>
      </trkpt>
      <trkpt lat="45.77987" lon="5.3541">
        <ele>309</ele>
        <time>2017-02-15T10:46:15Z</time>
      </trkpt>
      <trkpt lat="45.77995" lon="5.35411">
        <ele>309</ele>
        <time>2017-02-15T10:46:21Z</time>
      </trkpt>
      <trkpt lat="45.78033" lon="5.35379">
        <ele>310</ele>
        <time>2017-02-15T10:46:43Z</time>
      </trkpt>
      <trkpt lat="45.78038" lon="5.35371">
        <ele>310</ele>
        <time>2017-02-15T10:46:46Z</time>
      </trkpt>
      <trkpt lat="45.78033" lon="5.35356">
        <ele>311</ele>
        <time>2017-02-15T10:46:52Z</time>
      </trkpt>
      <trkpt lat="45.78004" lon="5.35314">
        <ele>309</ele>
        <time>2017-02-15T10:47:15Z</time>
      </trkpt>
      <trkpt lat="45.78002" lon="5.35289">
        <ele>309</ele>
        <time>2017-02-15T10:47:25Z</time>
      </trkpt>
      <trkpt lat="45.78001" lon="5.35216">
        <ele>308</ele>
        <time>2017-02-15T10:47:55Z</time>
      </trkpt>
      <trkpt lat="45.78007" lon="5.35141">
        <ele>310</ele>
        <time>2017-02-15T10:48:26Z</time>
      </trkpt>
      <trkpt lat="45.7801" lon="5.35094">
        <ele>312</ele>
        <time>2017-02-15T10:48:48Z</time>
      </trkpt>
      <trkpt lat="45.78008" lon="5.35021">
        <ele>314</ele>
        <time>2017-02-15T10:49:18Z</time>
      </trkpt>
      <trkpt lat="45.78002" lon="5.34993">
        <ele>316</ele>
        <time>2017-02-15T10:49:38Z</time>
      </trkpt>
      <trkpt lat="45.78003" lon="5.34956">
        <ele>316</ele>
        <time>2017-02-15T10:49:49Z</time>
      </trkpt>
      <trkpt lat="45.78007" lon="5.34922">
        <ele>316</ele>
        <time>2017-02-15T10:49:55Z</time>
      </trkpt>
      <trkpt lat="45.78016" lon="5.34869">
        <ele>317</ele>
        <time>2017-02-15T10:50:05Z</time>
      </trkpt>
      <trkpt lat="45.78005" lon="5.3472">
        <ele>317</ele>
        <time>2017-02-15T10:50:37Z</time>
      </trkpt>
      <trkpt lat="45.78011" lon="5.34703">
        <ele>317</ele>
        <time>2017-02-15T10:50:43Z</time>
      </trkpt>
      <trkpt lat="45.78047" lon="5.34657">
        <ele>317</ele>
        <time>2017-02-15T10:50:57Z</time>
      </trkpt>
      <trkpt lat="45.78102" lon="5.34603">
        <ele>317</ele>
        <time>2017-02-15T10:51:18Z</time>
      </trkpt>
      <trkpt lat="45.78133" lon="5.34593">
        <ele>317</ele>
        <time>2017-02-15T10:51:35Z</time>
      </trkpt>
      <trkpt lat="45.78183" lon="5.34603">
        <ele>318</ele>
        <time>2017-02-15T10:52:06Z</time>
      </trkpt>
      <trkpt lat="45.78209" lon="5.34623">
        <ele>319</ele>
        <time>2017-02-15T10:52:23Z</time>
      </trkpt>
      <trkpt lat="45.78228" lon="5.34639">
        <ele>321</ele>
        <time>2017-02-15T10:52:39Z</time>
      </trkpt>
      <trkpt lat="45.78251" lon="5.34661">
        <ele>322</ele>
        <time>2017-02-15T10:52:58Z</time>
      </trkpt>
      <trkpt lat="45.78277" lon="5.34705">
        <ele>323</ele>
        <time>2017-02-15T10:53:24Z</time>
      </trkpt>
      <trkpt lat="45.7828" lon="5.34717">
        <ele>323</ele>
        <time>2017-02-15T10:53:30Z</time>
      </trkpt>
      <trkpt lat="45.78289" lon="5.34744">
        <ele>324</ele>
        <time>2017-02-15T10:53:45Z</time>
      </trkpt>
      <trkpt lat="45.78312" lon="5.34782">
        <ele>325</ele>
        <time>2017-02-15T10:54:09Z</time>
      </trkpt>
      <trkpt lat="45.78342" lon="5.3483">
        <ele>327</ele>
        <time>2017-02-15T10:54:37Z</time>
      </trkpt>
      <trkpt lat="45.78369" lon="5.34884">
        <ele>327</ele>
        <time>2017-02-15T10:55:07Z</time>
      </trkpt>
      <trkpt lat="45.784" lon="5.34934">
        <ele>326</ele>
        <time>2017-02-15T10:55:38Z</time>
      </trkpt>
      <trkpt lat="45.78431" lon="5.34988">
        <ele>325</ele>
        <time>2017-02-15T10:56:08Z</time>
      </trkpt>
      <trkpt lat="45.78447" lon="5.35018">
        <ele>326</ele>
        <time>2017-02-15T10:56:24Z</time>
      </trkpt>
      <trkpt lat="45.78472" lon="5.35058">
        <ele>326</ele>
        <time>2017-02-15T10:56:47Z</time>
      </trkpt>
      <trkpt lat="45.785" lon="5.35105">
        <ele>327</ele>
        <time>2017-02-15T10:57:12Z</time>
      </trkpt>
      <trkpt lat="45.78532" lon="5.35159">
        <ele>327</ele>
        <time>2017-02-15T10:57:42Z</time>
      </trkpt>
      <trkpt lat="45.78557" lon="5.35205">
        <ele>327</ele>
        <time>2017-02-15T10:58:10Z</time>
      </trkpt>
      <trkpt lat="45.78577" lon="5.35242">
        <ele>329</ele>
        <time>2017-02-15T10:58:33Z</time>
      </trkpt>
      <trkpt lat="45.78601" lon="5.35311">
        <ele>328</ele>
        <time>2017-02-15T10:59:06Z</time>
      </trkpt>
      <trkpt lat="45.78612" lon="5.35339">
        <ele>326</ele>
        <time>2017-02-15T10:59:21Z</time>
      </trkpt>
      <trkpt lat="45.7862" lon="5.35342">
        <ele>325</ele>
        <time>2017-02-15T10:59:27Z</time>
      </trkpt>
      <trkpt lat="45.78624" lon="5.35336">
        <ele>325</ele>
        <time>2017-02-15T10:59:31Z</time>
      </trkpt>
      <trkpt lat="45.78645" lon="5.35297">
        <ele>323</ele>
        <time>2017-02-15T10:59:43Z</time>
      </trkpt>
      <trkpt lat="45.78667" lon="5.35241">
        <ele>320</ele>
        <time>2017-02-15T10:59:55Z</time>
      </trkpt>
      <trkpt lat="45.78697" lon="5.35167">
        <ele>321</ele>
        <time>2017-02-15T11:00:13Z</time>
      </trkpt>
      <trkpt lat="45.78708" lon="5.35147">
        <ele>322</ele>
        <time>2017-02-15T11:00:18Z</time>
      </trkpt>
      <trkpt lat="45.78733" lon="5.35085">
        <ele>331</ele>
        <time>2017-02-15T11:00:31Z</time>
      </trkpt>
      <trkpt lat="45.78778" lon="5.3495">
        <ele>334</ele>
        <time>2017-02-15T11:00:57Z</time>
      </trkpt>
      <trkpt lat="45.788" lon="5.34903">
        <ele>334</ele>
        <time>2017-02-15T11:01:07Z</time>
      </trkpt>
      <trkpt lat="45.78875" lon="5.34767">
        <ele>335</ele>
        <time>2017-02-15T11:01:37Z</time>
      </trkpt>
      <trkpt lat="45.78944" lon="5.34616">
        <ele>341</ele>
        <time>2017-02-15T11:02:07Z</time>
      </trkpt>
      <trkpt lat="45.78964" lon="5.34552">
        <ele>340</ele>
        <time>2017-02-15T11:02:19Z</time>
      </trkpt>
      <trkpt lat="45.78976" lon="5.3448">
        <ele>342</ele>
        <time>2017-02-15T11:02:33Z</time>
      </trkpt>
      <trkpt lat="45.7897" lon="5.3438">
        <ele>340</ele>
        <time>2017-02-15T11:02:52Z</time>
      </trkpt>
      <trkpt lat="45.78971" lon="5.34348">
        <ele>339</ele>
        <time>2017-02-15T11:02:58Z</time>
      </trkpt>
      <trkpt lat="45.78981" lon="5.34245">
        <ele>340</ele>
        <time>2017-02-15T11:03:31Z</time>
      </trkpt>
      <trkpt lat="45.78986" lon="5.34167">
        <ele>345</ele>
        <time>2017-02-15T11:04:04Z</time>
      </trkpt>
      <trkpt lat="45.78992" lon="5.34141">
        <ele>346</ele>
        <time>2017-02-15T11:04:17Z</time>
      </trkpt>
      <trkpt lat="45.79012" lon="5.34132">
        <ele>346</ele>
        <time>2017-02-15T11:04:30Z</time>
      </trkpt>
      <trkpt lat="45.79072" lon="5.34105">
        <ele>345</ele>
        <time>2017-02-15T11:05:04Z</time>
      </trkpt>
      <trkpt lat="45.7911" lon="5.34079">
        <ele>343</ele>
        <time>2017-02-15T11:05:33Z</time>
      </trkpt>
      <trkpt lat="45.79136" lon="5.34059">
        <ele>345</ele>
        <time>2017-02-15T11:05:51Z</time>
      </trkpt>
      <trkpt lat="45.79142" lon="5.34064">
        <ele>346</ele>
        <time>2017-02-15T11:05:57Z</time>
      </trkpt>
      <trkpt lat="45.79168" lon="5.34125">
        <ele>350</ele>
        <time>2017-02-15T11:06:28Z</time>
      </trkpt>
      <trkpt lat="45.79198" lon="5.34186">
        <ele>352</ele>
        <time>2017-02-15T11:07:01Z</time>
      </trkpt>
      <trkpt lat="45.79215" lon="5.34203">
        <ele>351</ele>
        <time>2017-02-15T11:07:14Z</time>
      </trkpt>
      <trkpt lat="45.79228" lon="5.3421">
        <ele>351</ele>
        <time>2017-02-15T11:07:23Z</time>
      </trkpt>
      <trkpt lat="45.79274" lon="5.34223">
        <ele>354</ele>
        <time>2017-02-15T11:07:54Z</time>
      </trkpt>
      <trkpt lat="45.79291" lon="5.34239">
        <ele>354</ele>
        <time>2017-02-15T11:08:08Z</time>
      </trkpt>
      <trkpt lat="45.79308" lon="5.34259">
        <ele>354</ele>
        <time>2017-02-15T11:08:21Z</time>
      </trkpt>
      <trkpt lat="45.79345" lon="5.343">
        <ele>353</ele>
        <time>2017-02-15T11:08:51Z</time>
      </trkpt>
      <trkpt lat="45.79361" lon="5.34324">
        <ele>352</ele>
        <time>2017-02-15T11:09:06Z</time>
      </trkpt>
      <trkpt lat="45.79385" lon="5.34352">
        <ele>352</ele>
        <time>2017-02-15T11:09:26Z</time>
      </trkpt>
      <trkpt lat="45.79419" lon="5.34385">
        <ele>353</ele>
        <time>2017-02-15T11:09:52Z</time>
      </trkpt>
      <trkpt lat="45.79431" lon="5.34401">
        <ele>353</ele>
        <time>2017-02-15T11:10:03Z</time>
      </trkpt>
      <trkpt lat="45.79459" lon="5.34443">
        <ele>353</ele>
        <time>2017-02-15T11:10:33Z</time>
      </trkpt>
      <trkpt lat="45.795" lon="5.34478">
        <ele>354</ele>
        <time>2017-02-15T11:11:03Z</time>
      </trkpt>
      <trkpt lat="45.79529" lon="5.34509">
        <ele>355</ele>
        <time>2017-02-15T11:11:27Z</time>
      </trkpt>
      <trkpt lat="45.79553" lon="5.34534">
        <ele>356</ele>
        <time>2017-02-15T11:11:45Z</time>
      </trkpt>
      <trkpt lat="45.79594" lon="5.34564">
        <ele>358</ele>
        <time>2017-02-15T11:12:15Z</time>
      </trkpt>
      <trkpt lat="45.79606" lon="5.34574">
        <ele>358</ele>
        <time>2017-02-15T11:12:23Z</time>
      </trkpt>
      <trkpt lat="45.79613" lon="5.34578">
        <ele>358</ele>
        <time>2017-02-15T11:12:29Z</time>
      </trkpt>
      <trkpt lat="45.79621" lon="5.34575">
        <ele>359</ele>
        <time>2017-02-15T11:12:40Z</time>
      </trkpt>
      <trkpt lat="45.7963" lon="5.34563">
        <ele>360</ele>
        <time>2017-02-15T11:12:47Z</time>
      </trkpt>
      <trkpt lat="45.79634" lon="5.34548">
        <ele>361</ele>
        <time>2017-02-15T11:12:55Z</time>
      </trkpt>
      <trkpt lat="45.79657" lon="5.34486">
        <ele>362</ele>
        <time>2017-02-15T11:13:25Z</time>
      </trkpt>
      <trkpt lat="45.79662" lon="5.34477">
        <ele>362</ele>
        <time>2017-02-15T11:13:30Z</time>
      </trkpt>
      <trkpt lat="45.79668" lon="5.34477">
        <ele>362</ele>
        <time>2017-02-15T11:13:49Z</time>
      </trkpt>
      <trkpt lat="45.79688" lon="5.34425">
        <ele>363</ele>
        <time>2017-02-15T11:14:14Z</time>
      </trkpt>
      <trkpt lat="45.7972" lon="5.34389">
        <ele>366</ele>
        <time>2017-02-15T11:14:39Z</time>
      </trkpt>
      <trkpt lat="45.79724" lon="5.3438">
        <ele>367</ele>
        <time>2017-02-15T11:14:44Z</time>
      </trkpt>
      <trkpt lat="45.79729" lon="5.34377">
        <ele>368</ele>
        <time>2017-02-15T11:14:47Z</time>
      </trkpt>
      <trkpt lat="45.79764" lon="5.34348">
        <ele>369</ele>
        <time>2017-02-15T11:15:11Z</time>
      </trkpt>
      <trkpt lat="45.79786" lon="5.34316">
        <ele>368</ele>
        <time>2017-02-15T11:15:33Z</time>
      </trkpt>
      <trkpt lat="45.79796" lon="5.34294">
        <ele>367</ele>
        <time>2017-02-15T11:15:43Z</time>
      </trkpt>
      <trkpt lat="45.79809" lon="5.34252">
        <ele>365</ele>
        <time>2017-02-15T11:16:04Z</time>
      </trkpt>
      <trkpt lat="45.79824" lon="5.3424">
        <ele>364</ele>
        <time>2017-02-15T11:16:15Z</time>
      </trkpt>
      <trkpt lat="45.79832" lon="5.34237">
        <ele>364</ele>
        <time>2017-02-15T11:16:21Z</time>
      </trkpt>
      <trkpt lat="45.79837" lon="5.3423">
        <ele>364</ele>
        <time>2017-02-15T11:16:26Z</time>
      </trkpt>
      <trkpt lat="45.79844" lon="5.34226">
        <ele>364</ele>
        <time>2017-02-15T11:16:30Z</time>
      </trkpt>
      <trkpt lat="45.79863" lon="5.34212">
        <ele>366</ele>
        <time>2017-02-15T11:16:47Z</time>
      </trkpt>
      <trkpt lat="45.79903" lon="5.34178">
        <ele>366</ele>
        <time>2017-02-15T11:17:18Z</time>
      </trkpt>
      <trkpt lat="45.79907" lon="5.34169">
        <ele>366</ele>
        <time>2017-02-15T11:17:22Z</time>
      </trkpt>
      <trkpt lat="45.79929" lon="5.34106">
        <ele>365</ele>
        <time>2017-02-15T11:17:52Z</time>
      </trkpt>
      <trkpt lat="45.79931" lon="5.34086">
        <ele>365</ele>
        <time>2017-02-15T11:18:01Z</time>
      </trkpt>
      <trkpt lat="45.79928" lon="5.34076">
        <ele>364</ele>
        <time>2017-02-15T11:18:05Z</time>
      </trkpt>
      <trkpt lat="45.79922" lon="5.34067">
        <ele>364</ele>
        <time>2017-02-15T11:18:09Z</time>
      </trkpt>
      <trkpt lat="45.79878" lon="5.34024">
        <ele>360</ele>
        <time>2017-02-15T11:18:41Z</time>
      </trkpt>
      <trkpt lat="45.79849" lon="5.3399">
        <ele>359</ele>
        <time>2017-02-15T11:19:05Z</time>
      </trkpt>
      <trkpt lat="45.79828" lon="5.33966">
        <ele>358</ele>
        <time>2017-02-15T11:19:22Z</time>
      </trkpt>
      <trkpt lat="45.79802" lon="5.33938">
        <ele>357</ele>
        <time>2017-02-15T11:19:41Z</time>
      </trkpt>
      <trkpt lat="45.79797" lon="5.3393">
        <ele>356</ele>
        <time>2017-02-15T11:19:47Z</time>
      </trkpt>
      <trkpt lat="45.79797" lon="5.33923">
        <ele>356</ele>
        <time>2017-02-15T11:19:50Z</time>
      </trkpt>
      <trkpt lat="45.79803" lon="5.33919">
        <ele>356</ele>
        <time>2017-02-15T11:19:55Z</time>
      </trkpt>
      <trkpt lat="45.79851" lon="5.33928">
        <ele>354</ele>
        <time>2017-02-15T11:20:27Z</time>
      </trkpt>
      <trkpt lat="45.79873" lon="5.33932">
        <ele>354</ele>
        <time>2017-02-15T11:20:44Z</time>
      </trkpt>
      <trkpt lat="45.79892" lon="5.33941">
        <ele>355</ele>
        <time>2017-02-15T11:20:57Z</time>
      </trkpt>
      <trkpt lat="45.79906" lon="5.33944">
        <ele>355</ele>
        <time>2017-02-15T11:21:08Z</time>
      </trkpt>
      <trkpt lat="45.7991" lon="5.33935">
        <ele>355</ele>
        <time>2017-02-15T11:21:44Z</time>
      </trkpt>
      <trkpt lat="45.79925" lon="5.33943">
        <ele>355</ele>
        <time>2017-02-15T11:22:12Z</time>
      </trkpt>
      <trkpt lat="45.79977" lon="5.33954">
        <ele>353</ele>
        <time>2017-02-15T11:22:45Z</time>
      </trkpt>
      <trkpt lat="45.8003" lon="5.33959">
        <ele>352</ele>
        <time>2017-02-15T11:23:18Z</time>
      </trkpt>
      <trkpt lat="45.80077" lon="5.33975">
        <ele>353</ele>
        <time>2017-02-15T11:23:49Z</time>
      </trkpt>
      <trkpt lat="45.80115" lon="5.33997">
        <ele>354</ele>
        <time>2017-02-15T11:24:14Z</time>
      </trkpt>
      <trkpt lat="45.80126" lon="5.34013">
        <ele>354</ele>
        <time>2017-02-15T11:24:25Z</time>
      </trkpt>
      <trkpt lat="45.8014" lon="5.34042">
        <ele>351</ele>
        <time>2017-02-15T11:24:42Z</time>
      </trkpt>
      <trkpt lat="45.80173" lon="5.34092">
        <ele>351</ele>
        <time>2017-02-15T11:25:15Z</time>
      </trkpt>
      <trkpt lat="45.80211" lon="5.34145">
        <ele>349</ele>
        <time>2017-02-15T11:25:48Z</time>
      </trkpt>
      <trkpt lat="45.80246" lon="5.34189">
        <ele>348</ele>
        <time>2017-02-15T11:26:19Z</time>
      </trkpt>
      <trkpt lat="45.80282" lon="5.34226">
        <ele>346</ele>
        <time>2017-02-15T11:26:51Z</time>
      </trkpt>
      <trkpt lat="45.80288" lon="5.34232">
        <ele>345</ele>
        <time>2017-02-15T11:26:57Z</time>
      </trkpt>
      <trkpt lat="45.8029" lon="5.3424">
        <ele>345</ele>
        <time>2017-02-15T11:27:03Z</time>
      </trkpt>
      <trkpt lat="45.80287" lon="5.3429">
        <ele>346</ele>
        <time>2017-02-15T11:27:26Z</time>
      </trkpt>
      <trkpt lat="45.80316" lon="5.34331">
        <ele>344</ele>
        <time>2017-02-15T11:27:49Z</time>
      </trkpt>
      <trkpt lat="45.80351" lon="5.34359">
        <ele>342</ele>
        <time>2017-02-15T11:28:17Z</time>
      </trkpt>
      <trkpt lat="45.80392" lon="5.34364">
        <ele>340</ele>
        <time>2017-02-15T11:28:49Z</time>
      </trkpt>
      <trkpt lat="45.80404" lon="5.34364">
        <ele>340</ele>
        <time>2017-02-15T11:28:57Z</time>
      </trkpt>
      <trkpt lat="45.8043" lon="5.34392">
        <ele>337</ele>
        <time>2017-02-15T11:29:21Z</time>
      </trkpt>
      <trkpt lat="45.80443" lon="5.34403">
        <ele>335</ele>
        <time>2017-02-15T11:29:31Z</time>
      </trkpt>
      <trkpt lat="45.80451" lon="5.34415">
        <ele>333</ele>
        <time>2017-02-15T11:29:37Z</time>
      </trkpt>
      <trkpt lat="45.80453" lon="5.34422">
        <ele>332</ele>
        <time>2017-02-15T11:29:41Z</time>
      </trkpt>
      <trkpt lat="45.80461" lon="5.34423">
        <ele>330</ele>
        <time>2017-02-15T11:29:58Z</time>
      </trkpt>
      <trkpt lat="45.80477" lon="5.34408">
        <ele>325</ele>
        <time>2017-02-15T11:30:08Z</time>
      </trkpt>
      <trkpt lat="45.80519" lon="5.34373">
        <ele>323</ele>
        <time>2017-02-15T11:30:40Z</time>
      </trkpt>
      <trkpt lat="45.80563" lon="5.34323">
        <ele>324</ele>
        <time>2017-02-15T11:31:16Z</time>
      </trkpt>
      <trkpt lat="45.80591" lon="5.34291">
        <ele>325</ele>
        <time>2017-02-15T11:31:37Z</time>
      </trkpt>
      <trkpt lat="45.80599" lon="5.34285">
        <ele>325</ele>
        <time>2017-02-15T11:31:44Z</time>
      </trkpt>
      <trkpt lat="45.80625" lon="5.34258">
        <ele>327</ele>
        <time>2017-02-15T11:32:05Z</time>
      </trkpt>
      <trkpt lat="45.80633" lon="5.34243">
        <ele>327</ele>
        <time>2017-02-15T11:32:12Z</time>
      </trkpt>
      <trkpt lat="45.80635" lon="5.34234">
        <ele>326</ele>
        <time>2017-02-15T11:32:21Z</time>
      </trkpt>
      <trkpt lat="45.80639" lon="5.34237">
        <ele>326</ele>
        <time>2017-02-15T11:33:01Z</time>
      </trkpt>
    </trkseg>
  </trk>
</gpx>